Wetterdaten: Montag, 30.05.2011
Datum Zeit Temp. A. Feuchte A. Luftdruck Regen Wind Richtung Richtung Sonnenschein UV Solar Windben
30.05.2011 00:00 16,0 C 73 % 1014,4 hPa 0,0 mm 0,0 km/h (0 Bft) N 0 0 min 0 UV-I 0 W/m 0,0 km/h (0 Bft)
30.05.2011 00:10 15,7 C 74 % 1014,4 hPa 0,0 mm 0,0 km/h (0 Bft) N 0 0 min 0 UV-I 0 W/m 0,0 km/h (0 Bft)
30.05.2011 00:20 15,5 C 74 % 1014,3 hPa 0,0 mm 0,0 km/h (0 Bft) W 270 0 min 0 UV-I 0 W/m 1,6 km/h (1 Bft)
30.05.2011 00:30 15,7 C 73 % 1014,3 hPa 0,0 mm 0,0 km/h (0 Bft) W 270 0 min 0 UV-I 0 W/m 1,6 km/h (1 Bft)
30.05.2011 00:40 15,8 C 73 % 1014,4 hPa 0,0 mm 0,0 km/h (0 Bft) W 270 0 min 0 UV-I 0 W/m 1,6 km/h (1 Bft)
30.05.2011 00:50 15,7 C 73 % 1014,4 hPa 0,0 mm 0,0 km/h (0 Bft) W 270 0 min 0 UV-I 0 W/m 1,6 km/h (1 Bft)
30.05.2011 01:00 15,3 C 74 % 1014,4 hPa 0,0 mm 0,0 km/h (0 Bft) N 0 0 min 0 UV-I 0 W/m 0,0 km/h (0 Bft)
30.05.2011 01:10 15,1 C 75 % 1014,3 hPa 0,0 mm 0,0 km/h (0 Bft) N 0 0 min 0 UV-I 0 W/m 0,0 km/h (0 Bft)
30.05.2011 01:20 15,0 C 76 % 1014,4 hPa 0,0 mm 0,0 km/h (0 Bft) N 0 0 min 0 UV-I 0 W/m 0,0 km/h (0 Bft)
30.05.2011 01:30 14,7 C 77 % 1014,4 hPa 0,0 mm 0,0 km/h (0 Bft) W 270 0 min 0 UV-I 0 W/m 1,6 km/h (1 Bft)
30.05.2011 01:40 14,7 C 76 % 1014,3 hPa 0,0 mm 0,0 km/h (0 Bft) N 0 0 min 0 UV-I 0 W/m 0,0 km/h (0 Bft)
30.05.2011 01:50 14,6 C 77 % 1014,3 hPa 0,0 mm 0,0 km/h (0 Bft) W 270 0 min 0 UV-I 0 W/m 1,6 km/h (1 Bft)
30.05.2011 02:00 14,2 C 79 % 1014,4 hPa 0,0 mm 0,0 km/h (0 Bft) N 0 0 min 0 UV-I 0 W/m 0,0 km/h (0 Bft)
30.05.2011 02:10 14,0 C 79 % 1014,4 hPa 0,0 mm 0,0 km/h (0 Bft) N 0 0 min 0 UV-I 0 W/m 0,0 km/h (0 Bft)
30.05.2011 02:20 14,0 C 78 % 1014,4 hPa 0,0 mm 0,0 km/h (0 Bft) N 0 0 min 0 UV-I 0 W/m 0,0 km/h (0 Bft)
30.05.2011 02:30 13,7 C 80 % 1014,4 hPa 0,0 mm 0,0 km/h (0 Bft) N 0 0 min 0 UV-I 0 W/m 0,0 km/h (0 Bft)
30.05.2011 02:40 13,4 C 81 % 1014,4 hPa 0,0 mm 0,0 km/h (0 Bft) N 0 0 min 0 UV-I 0 W/m 0,0 km/h (0 Bft)
30.05.2011 02:50 13,3 C 81 % 1014,5 hPa 0,0 mm 0,0 km/h (0 Bft) N 0 0 min 0 UV-I 0 W/m 0,0 km/h (0 Bft)
30.05.2011 03:00 13,2 C 82 % 1014,6 hPa 0,0 mm 0,0 km/h (0 Bft) N 0 0 min 0 UV-I 0 W/m 0,0 km/h (0 Bft)
30.05.2011 03:10 13,0 C 82 % 1014,6 hPa 0,0 mm 0,0 km/h (0 Bft) N 0 0 min 0 UV-I 0 W/m 0,0 km/h (0 Bft)
30.05.2011 03:20 12,7 C 84 % 1014,5 hPa 0,0 mm 0,0 km/h (0 Bft) N 0 0 min 0 UV-I 0 W/m 0,0 km/h (0 Bft)
30.05.2011 03:30 12,7 C 84 % 1014,5 hPa 0,0 mm 0,0 km/h (0 Bft) N 0 0 min 0 UV-I 0 W/m 0,0 km/h (0 Bft)
30.05.2011 03:40 12,7 C 84 % 1014,5 hPa 0,0 mm 0,0 km/h (0 Bft) N 0 0 min 0 UV-I 0 W/m 0,0 km/h (0 Bft)
30.05.2011 03:50 12,5 C 84 % 1014,5 hPa 0,0 mm 0,0 km/h (0 Bft) N 0 0 min 0 UV-I 0 W/m 0,0 km/h (0 Bft)
30.05.2011 04:00 12,4 C 84 % 1014,4 hPa 0,0 mm 0,0 km/h (0 Bft) N 0 0 min 0 UV-I 0 W/m 0,0 km/h (0 Bft)
30.05.2011 04:10 12,2 C 85 % 1014,4 hPa 0,0 mm 0,0 km/h (0 Bft) N 0 0 min 0 UV-I 0 W/m 0,0 km/h (0 Bft)
30.05.2011 04:20 12,2 C 85 % 1014,3 hPa 0,0 mm 0,0 km/h (0 Bft) N 0 0 min 0 UV-I 0 W/m 0,0 km/h (0 Bft)
30.05.2011 04:30 12,2 C 85 % 1014,4 hPa 0,0 mm 0,0 km/h (0 Bft) N 0 0 min 0 UV-I 0 W/m 0,0 km/h (0 Bft)
30.05.2011 04:40 12,0 C 86 % 1014,4 hPa 0,0 mm 0,0 km/h (0 Bft) N 0 0 min 0 UV-I 0 W/m 0,0 km/h (0 Bft)
30.05.2011 04:50 12,0 C 85 % 1014,4 hPa 0,0 mm 0,0 km/h (0 Bft) N 0 0 min 0 UV-I 0 W/m 0,0 km/h (0 Bft)
30.05.2011 05:00 11,8 C 86 % 1014,4 hPa 0,0 mm 0,0 km/h (0 Bft) N 0 0 min 0 UV-I 0 W/m 0,0 km/h (0 Bft)
30.05.2011 05:10 11,7 C 87 % 1014,4 hPa 0,0 mm 0,0 km/h (0 Bft) W 270 0 min 0 UV-I 0 W/m 1,6 km/h (1 Bft)
30.05.2011 05:20 11,8 C 87 % 1014,5 hPa 0,0 mm 0,0 km/h (0 Bft) W 270 0 min 0 UV-I 0 W/m 1,6 km/h (1 Bft)
30.05.2011 05:30 11,8 C 87 % 1014,5 hPa 0,0 mm 0,0 km/h (0 Bft) W 270 0 min 0 UV-I 7 W/m 1,6 km/h (1 Bft)
30.05.2011 05:40 11,8 C 87 % 1014,4 hPa 0,0 mm 0,0 km/h (0 Bft) W 270 0 min 0 UV-I 11 W/m 1,6 km/h (1 Bft)
30.05.2011 05:50 11,8 C 87 % 1014,5 hPa 0,0 mm 0,0 km/h (0 Bft) W 270 0 min 0 UV-I 16 W/m 1,6 km/h (1 Bft)
30.05.2011 06:00 11,9 C 86 % 1014,5 hPa 0,0 mm 0,0 km/h (0 Bft) W 270 0 min 0 UV-I 19 W/m 1,6 km/h (1 Bft)
30.05.2011 06:10 12,1 C 86 % 1014,4 hPa 0,0 mm 0,0 km/h (0 Bft) N 0 0 min 0 UV-I 23 W/m 0,0 km/h (0 Bft)
30.05.2011 06:20 12,0 C 87 % 1014,4 hPa 0,0 mm 0,0 km/h (0 Bft) W 270 0 min 0 UV-I 62 W/m 1,6 km/h (1 Bft)
30.05.2011 06:30 12,2 C 87 % 1014,4 hPa 0,0 mm 0,0 km/h (0 Bft) W 270 0 min 0 UV-I 79 W/m 1,6 km/h (1 Bft)
30.05.2011 06:40 12,5 C 86 % 1014,4 hPa 0,0 mm 0,0 km/h (0 Bft) W 270 0 min 0 UV-I 91 W/m 1,6 km/h (1 Bft)
30.05.2011 06:50 13,0 C 85 % 1014,4 hPa 0,0 mm 0,0 km/h (0 Bft) W 270 0 min 0 UV-I 93 W/m 1,6 km/h (1 Bft)
30.05.2011 07:00 13,5 C 83 % 1014,5 hPa 0,0 mm 0,0 km/h (0 Bft) W 270 10 min 1 UV-I 134 W/m 1,6 km/h (1 Bft)
30.05.2011 07:10 13,9 C 82 % 1014,5 hPa 0,0 mm 0,0 km/h (0 Bft) W 270 10 min 1 UV-I 144 W/m 3,2 km/h (1 Bft)
30.05.2011 07:20 14,5 C 80 % 1014,4 hPa 0,0 mm 0,0 km/h (0 Bft) W 270 10 min 1 UV-I 178 W/m 1,6 km/h (1 Bft)
30.05.2011 07:30 15,1 C 78 % 1014,4 hPa 0,0 mm 0,0 km/h (0 Bft) W 270 10 min 1 UV-I 195 W/m 3,2 km/h (1 Bft)
30.05.2011 07:40 15,7 C 78 % 1014,4 hPa 0,0 mm 0,0 km/h (0 Bft) W 270 10 min 1 UV-I 211 W/m 3,2 km/h (1 Bft)
30.05.2011 07:50 16,4 C 75 % 1014,4 hPa 0,0 mm 0,0 km/h (0 Bft) W 270 10 min 1 UV-I 239 W/m 3,2 km/h (1 Bft)
30.05.2011 08:00 16,9 C 74 % 1014,3 hPa 0,0 mm 0,0 km/h (0 Bft) W 270 10 min 1 UV-I 265 W/m 3,2 km/h (1 Bft)
30.05.2011 08:10 17,6 C 72 % 1014,3 hPa 0,0 mm 0,0 km/h (0 Bft) W 270 10 min 1 UV-I 304 W/m 1,6 km/h (1 Bft)
30.05.2011 08:20 18,3 C 69 % 1014,3 hPa 0,0 mm 0,0 km/h (0 Bft) W 270 10 min 2 UV-I 350 W/m 3,2 km/h (1 Bft)
30.05.2011 08:30 19,1 C 68 % 1014,2 hPa 0,0 mm 0,0 km/h (0 Bft) W 270 10 min 2 UV-I 376 W/m 4,8 km/h (1 Bft)
30.05.2011 08:40 19,9 C 65 % 1014,2 hPa 0,0 mm 0,0 km/h (0 Bft) W 270 10 min 2 UV-I 404 W/m 4,8 km/h (1 Bft)
30.05.2011 08:50 20,7 C 62 % 1014,2 hPa 0,0 mm 1,6 km/h (1 Bft) SW 225 10 min 2 UV-I 434 W/m 8,0 km/h (2 Bft)
30.05.2011 09:00 21,6 C 58 % 1014,0 hPa 0,0 mm 1,6 km/h (1 Bft) S-SO 157 10 min 2 UV-I 459 W/m 8,0 km/h (2 Bft)
30.05.2011 09:10 21,9 C 57 % 1014,1 hPa 0,0 mm 1,6 km/h (1 Bft) O-SO 112 10 min 3 UV-I 485 W/m 11,3 km/h (2 Bft)
30.05.2011 09:20 22,4 C 56 % 1014,1 hPa 0,0 mm 3,2 km/h (1 Bft) O-SO 112 10 min 3 UV-I 512 W/m 11,3 km/h (2 Bft)
30.05.2011 09:30 22,6 C 55 % 1014,2 hPa 0,0 mm 3,2 km/h (1 Bft) S 180 10 min 3 UV-I 536 W/m 11,3 km/h (2 Bft)
30.05.2011 09:40 22,8 C 55 % 1014,1 hPa 0,0 mm 1,6 km/h (1 Bft) S 180 10 min 3 UV-I 564 W/m 9,7 km/h (2 Bft)
30.05.2011 09:50 23,5 C 53 % 1014,1 hPa 0,0 mm 3,2 km/h (1 Bft) S-SO 157 10 min 4 UV-I 591 W/m 9,7 km/h (2 Bft)
30.05.2011 10:00 24,2 C 50 % 1014,0 hPa 0,0 mm 4,8 km/h (1 Bft) O-SO 112 10 min 4 UV-I 615 W/m 14,5 km/h (3 Bft)
30.05.2011 10:10 24,2 C 51 % 1013,9 hPa 0,0 mm 3,2 km/h (1 Bft) O-SO 112 10 min 4 UV-I 635 W/m 11,3 km/h (2 Bft)
30.05.2011 10:20 24,4 C 50 % 1014,0 hPa 0,0 mm 4,8 km/h (1 Bft) O-SO 112 10 min 4 UV-I 656 W/m 11,3 km/h (2 Bft)
30.05.2011 10:30 24,8 C 47 % 1013,8 hPa 0,0 mm 3,2 km/h (1 Bft) SO 135 10 min 5 UV-I 684 W/m 9,7 km/h (2 Bft)
30.05.2011 10:40 24,6 C 48 % 1013,9 hPa 0,0 mm 3,2 km/h (1 Bft) S-SO 157 10 min 5 UV-I 707 W/m 11,3 km/h (2 Bft)
30.05.2011 10:50 25,1 C 47 % 1013,6 hPa 0,0 mm 3,2 km/h (1 Bft) S-SO 157 10 min 5 UV-I 726 W/m 11,3 km/h (2 Bft)
30.05.2011 11:00 25,6 C 46 % 1013,3 hPa 0,0 mm 1,6 km/h (1 Bft) S-SO 157 10 min 5 UV-I 744 W/m 6,4 km/h (2 Bft)
30.05.2011 11:10 25,9 C 46 % 1013,3 hPa 0,0 mm 3,2 km/h (1 Bft) SO 135 10 min 6 UV-I 761 W/m 17,7 km/h (3 Bft)
30.05.2011 11:20 26,0 C 44 % 1013,2 hPa 0,0 mm 3,2 km/h (1 Bft) SO 135 10 min 6 UV-I 772 W/m 9,7 km/h (2 Bft)
30.05.2011 11:30 25,9 C 44 % 1013,1 hPa 0,0 mm 1,6 km/h (1 Bft) SO 135 10 min 6 UV-I 788 W/m 9,7 km/h (2 Bft)
30.05.2011 11:40 26,0 C 43 % 1013,2 hPa 0,0 mm 3,2 km/h (1 Bft) S-SO 157 10 min 6 UV-I 810 W/m 8,0 km/h (2 Bft)
30.05.2011 11:50 26,5 C 43 % 1013,1 hPa 0,0 mm 3,2 km/h (1 Bft) S 180 10 min 6 UV-I 835 W/m 16,1 km/h (3 Bft)
30.05.2011 12:00 26,7 C 41 % 1013,0 hPa 0,0 mm 1,6 km/h (1 Bft) S-SW 202 10 min 6 UV-I 849 W/m 16,1 km/h (3 Bft)
30.05.2011 12:10 26,4 C 43 % 1012,7 hPa 0,0 mm 1,6 km/h (1 Bft) S 180 10 min 7 UV-I 854 W/m 6,4 km/h (2 Bft)
30.05.2011 12:20 26,8 C 39 % 1012,6 hPa 0,0 mm 3,2 km/h (1 Bft) W-SW 247 10 min 7 UV-I 870 W/m 12,9 km/h (3 Bft)
30.05.2011 12:30 27,1 C 38 % 1012,5 hPa 0,0 mm 1,6 km/h (1 Bft) W-SW 247 10 min 7 UV-I 893 W/m 11,3 km/h (2 Bft)
30.05.2011 12:40 27,0 C 41 % 1012,3 hPa 0,0 mm 1,6 km/h (1 Bft) W-SW 247 10 min 7 UV-I 891 W/m 9,7 km/h (2 Bft)
30.05.2011 12:50 27,9 C 36 % 1012,2 hPa 0,0 mm 3,2 km/h (1 Bft) S 180 10 min 7 UV-I 900 W/m 11,3 km/h (2 Bft)
30.05.2011 13:00 27,7 C 36 % 1012,1 hPa 0,0 mm 4,8 km/h (1 Bft) W-SW 247 10 min 7 UV-I 905 W/m 14,5 km/h (3 Bft)
30.05.2011 13:10 27,8 C 35 % 1012,0 hPa 0,0 mm 3,2 km/h (1 Bft) W-SW 247 10 min 7 UV-I 900 W/m 9,7 km/h (2 Bft)
30.05.2011 13:20 28,9 C 37 % 1011,8 hPa 0,0 mm 3,2 km/h (1 Bft) O 90 10 min 7 UV-I 907 W/m 9,7 km/h (2 Bft)
30.05.2011 13:30 29,2 C 35 % 1011,8 hPa 0,0 mm 4,8 km/h (1 Bft) O-SO 112 10 min 7 UV-I 909 W/m 16,1 km/h (3 Bft)
30.05.2011 13:40 29,3 C 34 % 1011,5 hPa 0,0 mm 3,2 km/h (1 Bft) O-SO 112 10 min 7 UV-I 904 W/m 11,3 km/h (2 Bft)
30.05.2011 13:50 29,9 C 34 % 1011,4 hPa 0,0 mm 3,2 km/h (1 Bft) S-SO 157 10 min 7 UV-I 905 W/m 20,9 km/h (4 Bft)
30.05.2011 14:00 29,8 C 33 % 1011,3 hPa 0,0 mm 4,8 km/h (1 Bft) S-SW 202 10 min 7 UV-I 904 W/m 16,1 km/h (3 Bft)
30.05.2011 14:10 29,4 C 33 % 1011,1 hPa 0,0 mm 3,2 km/h (1 Bft) S-SO 157 10 min 7 UV-I 889 W/m 17,7 km/h (3 Bft)
30.05.2011 14:20 30,1 C 32 % 1011,1 hPa 0,0 mm 4,8 km/h (1 Bft) SO 135 10 min 7 UV-I 893 W/m 16,1 km/h (3 Bft)
30.05.2011 14:30 30,8 C 31 % 1010,8 hPa 0,0 mm 3,2 km/h (1 Bft) SO 135 10 min 7 UV-I 888 W/m 11,3 km/h (2 Bft)
30.05.2011 14:40 30,5 C 31 % 1010,7 hPa 0,0 mm 4,8 km/h (1 Bft) S-SW 202 10 min 6 UV-I 888 W/m 16,1 km/h (3 Bft)
30.05.2011 14:50 30,9 C 31 % 1010,3 hPa 0,0 mm 4,8 km/h (1 Bft) O 90 10 min 6 UV-I 872 W/m 20,9 km/h (4 Bft)
30.05.2011 15:00 31,0 C 32 % 1010,3 hPa 0,0 mm 4,8 km/h (1 Bft) S 180 10 min 6 UV-I 867 W/m 17,7 km/h (3 Bft)
30.05.2011 15:10 31,1 C 30 % 1010,1 hPa 0,0 mm 4,8 km/h (1 Bft) SO 135 10 min 6 UV-I 847 W/m 19,3 km/h (3 Bft)
30.05.2011 15:20 31,3 C 30 % 1010,2 hPa 0,0 mm 4,8 km/h (1 Bft) S 180 10 min 6 UV-I 860 W/m 16,1 km/h (3 Bft)
30.05.2011 15:30 31,4 C 30 % 1009,9 hPa 0,0 mm 4,8 km/h (1 Bft) S-SO 157 10 min 5 UV-I 858 W/m 22,5 km/h (4 Bft)
30.05.2011 15:40 31,2 C 31 % 1009,7 hPa 0,0 mm 4,8 km/h (1 Bft) S-SW 202 10 min 5 UV-I 823 W/m 16,1 km/h (3 Bft)
30.05.2011 15:50 31,1 C 30 % 1009,7 hPa 0,0 mm 6,4 km/h (2 Bft) SO 135 10 min 5 UV-I 803 W/m 19,3 km/h (3 Bft)
30.05.2011 16:00 31,1 C 30 % 1009,5 hPa 0,0 mm 4,8 km/h (1 Bft) O-SO 112 10 min 5 UV-I 791 W/m 17,7 km/h (3 Bft)
30.05.2011 16:10 31,7 C 29 % 1009,4 hPa 0,0 mm 4,8 km/h (1 Bft) SO 135 10 min 4 UV-I 768 W/m 14,5 km/h (3 Bft)
30.05.2011 16:20 31,2 C 31 % 1009,4 hPa 0,0 mm 4,8 km/h (1 Bft) S-SW 202 10 min 4 UV-I 749 W/m 19,3 km/h (3 Bft)
30.05.2011 16:30 31,8 C 29 % 1009,2 hPa 0,0 mm 4,8 km/h (1 Bft) S-SO 157 10 min 4 UV-I 724 W/m 22,5 km/h (4 Bft)
30.05.2011 16:40 31,7 C 30 % 1009,1 hPa 0,0 mm 4,8 km/h (1 Bft) S 180 10 min 4 UV-I 701 W/m 29,0 km/h (5 Bft)
30.05.2011 16:50 31,7 C 29 % 1009,0 hPa 0,0 mm 3,2 km/h (1 Bft) SO 135 10 min 4 UV-I 684 W/m 16,1 km/h (3 Bft)
30.05.2011 17:00 31,7 C 29 % 1008,8 hPa 0,0 mm 3,2 km/h (1 Bft) S-SW 202 10 min 3 UV-I 654 W/m 17,7 km/h (3 Bft)
30.05.2011 17:10 31,8 C 28 % 1008,8 hPa 0,0 mm 4,8 km/h (1 Bft) S 180 10 min 3 UV-I 629 W/m 17,7 km/h (3 Bft)
30.05.2011 17:20 31,6 C 28 % 1008,7 hPa 0,0 mm 4,8 km/h (1 Bft) S 180 10 min 3 UV-I 612 W/m 17,7 km/h (3 Bft)
30.05.2011 17:30 31,6 C 31 % 1008,5 hPa 0,0 mm 3,2 km/h (1 Bft) SW 225 10 min 3 UV-I 582 W/m 11,3 km/h (2 Bft)
30.05.2011 17:40 31,7 C 28 % 1008,2 hPa 0,0 mm 4,8 km/h (1 Bft) S-SW 202 10 min 2 UV-I 552 W/m 17,7 km/h (3 Bft)
30.05.2011 17:50 31,7 C 29 % 1008,3 hPa 0,0 mm 3,2 km/h (1 Bft) S 180 10 min 2 UV-I 534 W/m 11,3 km/h (2 Bft)
30.05.2011 18:00 31,4 C 30 % 1008,4 hPa 0,0 mm 4,8 km/h (1 Bft) S-SW 202 10 min 2 UV-I 494 W/m 20,9 km/h (4 Bft)
30.05.2011 18:10 31,5 C 30 % 1008,2 hPa 0,0 mm 4,8 km/h (1 Bft) S-SW 202 10 min 2 UV-I 482 W/m 20,9 km/h (4 Bft)
30.05.2011 18:20 31,2 C 29 % 1008,0 hPa 0,0 mm 3,2 km/h (1 Bft) S 180 10 min 2 UV-I 457 W/m 12,9 km/h (3 Bft)
30.05.2011 18:30 31,1 C 30 % 1007,9 hPa 0,0 mm 3,2 km/h (1 Bft) S-SW 202 10 min 1 UV-I 452 W/m 14,5 km/h (3 Bft)
30.05.2011 18:40 31,1 C 30 % 1007,8 hPa 0,0 mm 3,2 km/h (1 Bft) S 180 10 min 1 UV-I 411 W/m 11,3 km/h (2 Bft)
30.05.2011 18:50 30,5 C 31 % 1007,6 hPa 0,0 mm 3,2 km/h (1 Bft) SO 135 10 min 1 UV-I 387 W/m 9,7 km/h (2 Bft)
30.05.2011 19:00 30,7 C 31 % 1007,6 hPa 0,0 mm 1,6 km/h (1 Bft) S 180 10 min 1 UV-I 341 W/m 8,0 km/h (2 Bft)
30.05.2011 19:10 30,8 C 32 % 1007,5 hPa 0,0 mm 4,8 km/h (1 Bft) S-SW 202 10 min 1 UV-I 306 W/m 14,5 km/h (3 Bft)
30.05.2011 19:20 30,7 C 29 % 1007,5 hPa 0,0 mm 3,2 km/h (1 Bft) S-SO 157 10 min 1 UV-I 279 W/m 14,5 km/h (3 Bft)
30.05.2011 19:30 30,6 C 31 % 1007,5 hPa 0,0 mm 1,6 km/h (1 Bft) S 180 10 min 1 UV-I 251 W/m 8,0 km/h (2 Bft)
30.05.2011 19:40 30,4 C 31 % 1007,5 hPa 0,0 mm 1,6 km/h (1 Bft) S 180 10 min 1 UV-I 223 W/m 8,0 km/h (2 Bft)
30.05.2011 19:50 30,2 C 30 % 1007,5 hPa 0,0 mm 1,6 km/h (1 Bft) S 180 10 min 1 UV-I 186 W/m 4,8 km/h (1 Bft)
30.05.2011 20:00 29,8 C 30 % 1007,3 hPa 0,0 mm 0,0 km/h (0 Bft) S 180 10 min 1 UV-I 165 W/m 3,2 km/h (1 Bft)
30.05.2011 20:10 29,3 C 30 % 1007,3 hPa 0,0 mm 1,6 km/h (1 Bft) S 180 10 min 1 UV-I 144 W/m 8,0 km/h (2 Bft)
30.05.2011 20:20 28,7 C 31 % 1007,1 hPa 0,0 mm 0,0 km/h (0 Bft) S-SW 202 0 min 0 UV-I 35 W/m 4,8 km/h (1 Bft)
30.05.2011 20:30 28,1 C 33 % 1007,2 hPa 0,0 mm 0,0 km/h (0 Bft) S 180 0 min 0 UV-I 32 W/m 3,2 km/h (1 Bft)
30.05.2011 20:40 27,6 C 35 % 1007,1 hPa 0,0 mm 0,0 km/h (0 Bft) S 180 0 min 0 UV-I 28 W/m 1,6 km/h (1 Bft)
30.05.2011 20:50 26,8 C 37 % 1007,1 hPa 0,0 mm 0,0 km/h (0 Bft) N 0 0 min 0 UV-I 23 W/m 0,0 km/h (0 Bft)
30.05.2011 21:00 26,2 C 38 % 1007,1 hPa 0,0 mm 0,0 km/h (0 Bft) S-SW 202 0 min 0 UV-I 18 W/m 1,6 km/h (1 Bft)
30.05.2011 21:10 25,7 C 39 % 1006,9 hPa 0,0 mm 0,0 km/h (0 Bft) S 180 0 min 0 UV-I 14 W/m 1,6 km/h (1 Bft)
30.05.2011 21:20 25,2 C 40 % 1007,0 hPa 0,0 mm 0,0 km/h (0 Bft) S 180 0 min 0 UV-I 11 W/m 1,6 km/h (1 Bft)
30.05.2011 21:30 24,6 C 42 % 1007,0 hPa 0,0 mm 0,0 km/h (0 Bft) S 180 0 min 0 UV-I 5 W/m 1,6 km/h (1 Bft)
30.05.2011 21:40 24,1 C 43 % 1006,9 hPa 0,0 mm 0,0 km/h (0 Bft) S 180 0 min 0 UV-I 0 W/m 1,6 km/h (1 Bft)
30.05.2011 21:50 23,6 C 43 % 1006,9 hPa 0,0 mm 0,0 km/h (0 Bft) S 180 0 min 0 UV-I 0 W/m 1,6 km/h (1 Bft)
30.05.2011 22:00 23,4 C 44 % 1006,9 hPa 0,0 mm 0,0 km/h (0 Bft) S 180 0 min 0 UV-I 0 W/m 3,2 km/h (1 Bft)
30.05.2011 22:10 23,1 C 44 % 1007,0 hPa 0,0 mm 0,0 km/h (0 Bft) S 191 0 min 0 UV-I 0 W/m 0,0 km/h (0 Bft)
30.05.2011 22:20 22,9 C 44 % 1006,9 hPa 0,0 mm 0,1 km/h (0 Bft) S 187 0 min 0 UV-I 0 W/m 3,2 km/h (1 Bft)
30.05.2011 22:30 22,4 C 45 % 1006,8 hPa 0,0 mm 0,0 km/h (0 Bft) S 187 0 min 0 UV-I 0 W/m 1,6 km/h (1 Bft)
30.05.2011 22:40 22,1 C 46 % 1006,9 hPa 0,0 mm 0,1 km/h (0 Bft) S 187 0 min 0 UV-I 0 W/m 1,6 km/h (1 Bft)
30.05.2011 22:50 21,9 C 47 % 1006,8 hPa 0,0 mm 0,0 km/h (0 Bft) S 187 0 min 0 UV-I 0 W/m 1,6 km/h (1 Bft)
30.05.2011 23:00 21,7 C 47 % 1006,8 hPa 0,0 mm 0,1 km/h (0 Bft) S 188 0 min 0 UV-I 0 W/m 1,6 km/h (1 Bft)
30.05.2011 23:10 21,5 C 47 % 1006,8 hPa 0,0 mm 0,2 km/h (0 Bft) S 178 0 min 0 UV-I 0 W/m 3,2 km/h (1 Bft)
30.05.2011 23:20 21,4 C 47 % 1006,7 hPa 0,0 mm 0,1 km/h (0 Bft) S 178 0 min 0 UV-I 0 W/m 3,2 km/h (1 Bft)
30.05.2011 23:30 21,4 C 47 % 1006,6 hPa 0,0 mm 0,1 km/h (0 Bft) S 174 0 min 0 UV-I 0 W/m 3,2 km/h (1 Bft)
30.05.2011 23:40 21,7 C 45 % 1006,5 hPa 0,0 mm 0,8 km/h (0 Bft) S-SO 164 0 min 0 UV-I 0 W/m 6,4 km/h (2 Bft)
30.05.2011 23:50 21,9 C 44 % 1006,5 hPa 0,0 mm 1,8 km/h (1 Bft) S-SO 167 0 min 0 UV-I 0 W/m 9,7 km/h (2 Bft)
_ Min-Zeit 05:00 17:10 23:40 - 00:00 - - - - - 00:00
Minimum _ 11,7 C 28 % 1006,5 hPa - 0,0 km/h (0 Bft) - - - - - 0,0 km/h (0 Bft)
_ Max-Zeit 17:10 05:10 03:00 00:00 15:50 - - 07:00 12:50 13:30 16:40
Maximum _ 32,1 C 87 % 1014,6 hPa 0,0 mm 6,4 km/h
SO (2 Bft)
- - 10 min 7 UV-I 909 W/m 29,0 km/h
S-SO (5 Bft)
Durchschnitt _ 22,5 C 54 % 1011,5 hPa #0,0 mm 1,7 km/h (1 Bft) S - #13:20 h 4 UV-I 508 W/m 7,3 km/h (2 Bft)